Terminal Aerodrome Forecast
Issued by NWS

Home | Current Version | Previous Version | Text Only | Print | Product List | Glossary On
Versions: 1 2 3 4 5 6 7 8 9 10 11 12 13 14 15 16 17 18 19 20 21 22 23 24 25 26 27 28 29
000
FTUS43 KPAH 221722 AAA
TAFOWB
TAF AMD
KOWB 221722Z 2217/2318 24005KT P6SM BKN035
      TEMPO 2218/2219 5SM -TSRA BR BKN025CB
     FM222100 28007KT P6SM SCT080
     FM230000 VRB03KT P6SM FEW150
     FM231500 03007KT P6SM SKC=

USA.gov is the U.S. government's official web portal to all federal, state and local government web resources and services.